createdAt,value
2022-12-15T00:00:25.961Z,4.39
2022-12-15T00:04:46.364Z,4.39
2022-12-15T00:09:14.067Z,4.40
2022-12-15T00:13:35.542Z,4.40
2022-12-15T00:17:57.023Z,4.40
2022-12-15T00:22:17.756Z,4.40
2022-12-15T00:26:39.607Z,4.40
2022-12-15T00:31:02.451Z,4.39
2022-12-15T00:35:24.545Z,4.39
2022-12-15T00:39:28.280Z,4.39
2022-12-15T00:43:36.862Z,4.37
2022-12-15T00:47:40.375Z,4.37
2022-12-15T00:52:00.971Z,4.37
2022-12-15T00:56:22.182Z,4.37
2022-12-15T01:00:44.505Z,4.37
2022-12-15T01:05:05.387Z,4.36
2022-12-15T01:09:28.149Z,4.31
2022-12-15T01:13:49.890Z,4.36
2022-12-15T01:18:12.392Z,4.33
2022-12-15T01:22:15.851Z,4.24
2022-12-15T01:26:19.112Z,4.29
2022-12-15T01:30:24.574Z,4.29
2022-12-15T01:34:29.505Z,4.30
2022-12-15T01:38:33.037Z,4.31
2022-12-15T01:42:36.109Z,4.30
2022-12-15T01:46:39.659Z,4.23
2022-12-15T01:50:48.312Z,4.31
2022-12-15T01:54:55.980Z,4.31
2022-12-15T01:59:03.380Z,4.31
2022-12-15T02:03:08.414Z,4.31
2022-12-15T02:07:15.447Z,4.32
2022-12-15T02:12:02.672Z,4.29
2022-12-15T02:16:14.360Z,4.28
2022-12-15T02:20:42.425Z,4.27
2022-12-15T02:29:58.553Z,4.20
2022-12-15T02:34:10.282Z,4.28
2022-12-15T02:38:14.161Z,4.27
2022-12-15T02:42:17.670Z,4.21
2022-12-15T02:46:28.143Z,4.29
2022-12-15T02:50:50.660Z,4.29
2022-12-15T02:55:10.107Z,4.26
2022-12-15T02:59:21.335Z,4.28
2022-12-15T03:03:25.992Z,4.26
2022-12-15T03:07:30.756Z,4.27
2022-12-15T03:11:34.903Z,4.24
2022-12-15T03:15:38.417Z,4.23
2022-12-15T03:19:42.046Z,4.23
2022-12-15T03:23:46.873Z,4.24
2022-12-15T03:27:50.444Z,4.23
2022-12-15T03:31:54.043Z,4.23
2022-12-15T03:35:57.930Z,4.23
2022-12-15T03:40:02.915Z,4.23
2022-12-15T03:44:06.376Z,4.23
2022-12-15T03:48:09.942Z,4.22
2022-12-15T03:52:13.758Z,4.23
2022-12-15T03:56:19.476Z,4.23
2022-12-15T04:00:24.915Z,4.15
2022-12-15T04:04:28.413Z,4.22
2022-12-15T04:08:32.005Z,4.16
2022-12-15T04:12:39.748Z,4.22
2022-12-15T04:16:43.289Z,4.21
2022-12-15T04:20:46.319Z,4.20
2022-12-15T04:25:11.472Z,4.20
2022-12-15T04:29:33.776Z,4.17
2022-12-15T04:33:55.724Z,4.06
2022-12-15T04:38:16.964Z,4.19
2022-12-15T04:42:37.791Z,4.17
2022-12-15T04:47:02.573Z,4.13
2022-12-15T04:51:24.183Z,4.16
2022-12-15T04:55:45.349Z,4.15
2022-12-15T05:00:06.373Z,4.15
2022-12-15T05:04:28.415Z,4.15
2022-12-15T05:08:50.132Z,4.14
2022-12-15T05:13:10.873Z,4.12
2022-12-15T05:17:33.562Z,4.12
2022-12-15T05:21:56.574Z,4.12
2022-12-15T05:26:18.355Z,4.06
2022-12-15T05:30:39.474Z,4.02
2022-12-15T05:34:43.242Z,4.07
2022-12-15T05:38:50.431Z,4.07
2022-12-15T05:42:54.088Z,4.06
2022-12-15T05:46:58.171Z,4.01
2022-12-15T05:51:05.445Z,4.08
2022-12-15T05:55:10.938Z,4.09
2022-12-15T05:59:15.587Z,4.09
2022-12-15T06:03:19.039Z,4.11
2022-12-15T06:07:22.085Z,4.11
2022-12-15T06:11:27.694Z,4.11
2022-12-15T06:15:31.140Z,4.10
2022-12-15T06:19:34.119Z,4.09
2022-12-15T06:23:38.384Z,4.10
2022-12-15T06:27:43.330Z,4.13
2022-12-15T06:31:46.930Z,4.12
2022-12-15T06:35:53.969Z,4.15
2022-12-15T06:40:01.101Z,4.16
2022-12-15T06:44:06.528Z,4.17
2022-12-15T06:48:10.269Z,4.16
2022-12-15T06:52:14.105Z,4.16
2022-12-15T06:56:23.352Z,4.16
2022-12-15T07:00:32.736Z,4.16
2022-12-15T07:04:36.300Z,4.15
2022-12-15T07:08:41.878Z,4.13
2022-12-15T07:12:45.807Z,4.10
2022-12-15T07:16:50.312Z,4.14
2022-12-15T07:20:53.928Z,4.12
2022-12-15T07:24:57.616Z,4.16
2022-12-15T07:29:01.301Z,4.20
2022-12-15T07:33:06.613Z,4.25
2022-12-15T07:37:10.304Z,4.31
2022-12-15T07:41:14.020Z,4.37
2022-12-15T07:45:17.605Z,4.45
2022-12-15T07:49:22.950Z,4.52
2022-12-15T07:53:28.532Z,4.61
2022-12-15T07:57:32.987Z,4.69
2022-12-15T08:01:37.145Z,4.77
2022-12-15T08:05:42.030Z,4.85
2022-12-15T08:09:47.847Z,4.90
2022-12-15T08:14:02.570Z,4.95
2022-12-15T08:18:09.250Z,5.03
2022-12-15T08:22:15.731Z,5.09
2022-12-15T08:26:23.806Z,5.13
2022-12-15T08:30:30.431Z,5.18
2022-12-15T08:34:35.977Z,5.22
2022-12-15T08:38:42.778Z,5.30
2022-12-15T08:42:46.535Z,5.40
2022-12-15T08:46:49.597Z,5.52
2022-12-15T08:50:52.989Z,5.65
2022-12-15T08:54:58.033Z,5.80
2022-12-15T08:59:03.288Z,6.00
2022-12-15T09:03:06.801Z,6.20
2022-12-15T09:07:10.366Z,6.37
2022-12-15T09:11:15.803Z,6.52
2022-12-15T09:15:19.432Z,6.70
2022-12-15T09:19:22.926Z,6.91
2022-12-15T09:23:26.245Z,7.10
2022-12-15T09:27:31.785Z,7.26
2022-12-15T09:31:39.537Z,7.38
2022-12-15T09:35:42.860Z,7.46
2022-12-15T09:39:46.517Z,7.49
2022-12-15T09:43:56.721Z,7.48
2022-12-15T09:48:05.118Z,7.38
2022-12-15T09:52:14.171Z,7.27
2022-12-15T09:56:24.739Z,7.20
2022-12-15T10:00:34.366Z,7.19
2022-12-15T10:04:51.309Z,7.20
2022-12-15T10:08:57.417Z,7.23
2022-12-15T10:13:09.079Z,7.20
2022-12-15T10:17:23.244Z,7.18
2022-12-15T10:21:30.660Z,7.18
2022-12-15T11:24:09.476Z,6.64
2022-12-15T11:28:18.341Z,6.68
2022-12-15T11:32:25.088Z,6.73
2022-12-15T11:36:57.848Z,6.77
2022-12-15T11:41:10.587Z,6.79
2022-12-15T11:45:20.895Z,6.81
2022-12-15T11:49:47.876Z,6.75
2022-12-15T11:54:08.167Z,6.71
2022-12-15T11:58:48.601Z,6.69
2022-12-15T12:03:03.439Z,6.70
2022-12-15T12:07:19.565Z,6.72
2022-12-15T12:11:28.145Z,6.76
2022-12-15T12:15:38.791Z,6.79
2022-12-15T12:19:50.776Z,6.84
2022-12-15T12:24:01.465Z,6.89
2022-12-15T12:28:11.757Z,6.94
2022-12-15T12:32:20.778Z,6.97
2022-12-15T12:36:25.485Z,6.88
2022-12-15T12:40:37.242Z,6.59
2022-12-15T12:44:40.491Z,6.80
2022-12-15T12:48:52.256Z,6.72
2022-12-15T12:52:59.568Z,6.62
2022-12-15T12:57:03.618Z,6.52
2022-12-15T13:01:20.322Z,6.31
2022-12-15T13:05:30.047Z,6.36
2022-12-15T13:09:42.814Z,6.28
2022-12-15T13:13:51.234Z,6.24
2022-12-15T13:17:59.740Z,6.15
2022-12-15T13:22:03.007Z,6.09
2022-12-15T13:26:21.339Z,6.06
2022-12-15T13:30:24.851Z,6.04
2022-12-15T13:34:29.642Z,6.04
2022-12-15T13:38:54.331Z,6.04
2022-12-15T13:43:01.349Z,6.00
2022-12-15T13:47:11.004Z,5.96
2022-12-15T13:51:27.031Z,5.90
2022-12-15T13:55:37.514Z,5.82
2022-12-15T13:59:49.452Z,5.74
2022-12-15T14:04:07.401Z,5.62
2022-12-15T14:08:16.282Z,5.52
2022-12-15T14:12:19.602Z,5.40
2022-12-15T14:16:26.134Z,5.30
2022-12-15T14:20:32.038Z,5.21
2022-12-15T14:24:40.262Z,5.14
2022-12-15T14:28:45.816Z,5.06
2022-12-15T14:32:54.675Z,5.03
2022-12-15T14:36:59.930Z,4.97
2022-12-15T14:41:06.208Z,4.89
2022-12-15T14:45:20.279Z,4.85
2022-12-15T14:49:28.422Z,4.80
2022-12-15T14:53:34.914Z,4.76
2022-12-15T14:57:46.671Z,4.71
2022-12-15T15:01:58.516Z,4.67
2022-12-15T15:06:08.608Z,4.64
2022-12-15T15:10:24.629Z,4.60
2022-12-15T15:14:32.300Z,4.54
2022-12-15T15:18:35.610Z,4.31
2022-12-15T15:22:42.789Z,4.14
2022-12-15T15:26:45.929Z,4.44
2022-12-15T15:30:51.058Z,4.38
2022-12-15T15:34:59.381Z,4.40
2022-12-15T15:39:13.214Z,4.32
2022-12-15T15:43:17.798Z,4.26
2022-12-15T15:47:26.070Z,4.32
2022-12-15T15:51:31.403Z,4.30
2022-12-15T15:55:39.872Z,4.30
2022-12-15T15:59:44.284Z,4.22
2022-12-15T16:03:47.791Z,4.26
2022-12-15T16:07:51.810Z,4.25
2022-12-15T16:11:56.583Z,4.24
2022-12-15T16:15:59.991Z,4.20
2022-12-15T16:20:03.023Z,4.19
2022-12-15T16:24:10.116Z,4.16
2022-12-15T16:28:17.271Z,4.16
2022-12-15T16:32:20.505Z,4.15
2022-12-15T16:36:23.827Z,4.12
2022-12-15T16:40:31.271Z,4.04
2022-12-15T16:44:36.121Z,4.02
2022-12-15T16:48:39.397Z,4.01
2022-12-15T16:52:44.424Z,3.94
2022-12-15T16:56:47.706Z,4.00
2022-12-15T17:00:53.871Z,4.01
2022-12-15T17:04:57.263Z,3.99
2022-12-15T17:09:00.528Z,3.92
2022-12-15T17:13:08.154Z,4.05
2022-12-15T17:17:15.874Z,4.05
2022-12-15T17:21:22.107Z,4.08
2022-12-15T17:26:00.858Z,4.07
2022-12-15T17:29:51.036Z,4.09
2022-12-15T17:33:55.477Z,4.11
2022-12-15T17:37:58.786Z,4.11
2022-12-15T17:42:03.166Z,4.12
2022-12-15T17:46:07.017Z,4.11
2022-12-15T17:50:14.941Z,4.14
2022-12-15T17:54:20.080Z,4.14
2022-12-15T17:58:26.636Z,4.17
2022-12-15T18:02:30.084Z,4.17
2022-12-15T18:06:34.742Z,4.20
2022-12-15T18:10:40.994Z,4.17
2022-12-15T18:14:44.642Z,4.19
2022-12-15T18:18:47.966Z,4.17
2022-12-15T18:22:54.186Z,4.17
2022-12-15T18:26:57.247Z,4.18
2022-12-15T18:31:04.430Z,4.24
2022-12-15T18:35:16.197Z,4.25
2022-12-15T18:39:24.059Z,4.24
2022-12-15T18:43:30.649Z,4.25
2022-12-15T18:47:34.491Z,4.25
2022-12-15T18:51:37.886Z,4.26
2022-12-15T18:55:42.928Z,4.28
2022-12-15T18:59:46.225Z,4.28
2022-12-15T19:03:49.636Z,4.30
2022-12-15T19:07:53.066Z,4.32
2022-12-15T19:12:14.584Z,4.32
2022-12-15T19:16:20.265Z,4.33
2022-12-15T19:20:40.615Z,4.34
2022-12-15T19:24:56.240Z,4.30
2022-12-15T19:29:01.625Z,4.33
2022-12-15T19:33:05.868Z,4.34
2022-12-15T19:37:15.710Z,4.34
2022-12-15T19:41:19.802Z,4.33
2022-12-15T19:45:27.861Z,4.33
2022-12-15T19:49:32.109Z,4.33
2022-12-15T19:53:36.915Z,4.31
2022-12-15T19:57:42.377Z,4.32
2022-12-15T20:01:47.866Z,4.29
2022-12-15T20:10:29.367Z,4.28
2022-12-15T20:14:35.149Z,4.26
2022-12-15T20:18:40.997Z,4.28
2022-12-15T20:22:45.535Z,4.26
2022-12-15T20:26:56.564Z,4.25
2022-12-15T20:31:00.435Z,4.23
2022-12-15T20:35:05.690Z,4.24
2022-12-15T20:39:20.794Z,4.24
2022-12-15T20:43:31.397Z,4.23
2022-12-15T20:47:36.721Z,4.23
2022-12-15T20:51:41.880Z,4.23
2022-12-15T20:55:45.428Z,4.21
2022-12-15T20:59:49.601Z,4.23
2022-12-15T21:03:55.525Z,4.24
2022-12-15T21:08:00.182Z,4.25
2022-12-15T21:12:09.033Z,4.24
2022-12-15T21:16:17.130Z,4.26
2022-12-15T21:20:21.666Z,4.27
2022-12-15T21:24:29.510Z,4.25
2022-12-15T21:28:33.607Z,4.25
2022-12-15T21:32:37.317Z,4.25
2022-12-15T21:36:43.425Z,4.27
2022-12-15T21:40:48.188Z,4.29
2022-12-15T21:44:51.698Z,4.29
2022-12-15T21:49:12.412Z,4.30
2022-12-15T21:53:17.924Z,4.31
2022-12-15T21:57:22.702Z,4.27
2022-12-15T22:01:30.666Z,4.29
2022-12-15T22:05:34.222Z,4.28
2022-12-15T22:09:37.485Z,4.28
2022-12-15T22:13:42.338Z,4.30
2022-12-15T22:17:46.147Z,4.29
2022-12-15T22:21:50.261Z,4.24
2022-12-15T22:25:57.064Z,4.24
2022-12-15T22:30:01.917Z,4.23
2022-12-15T22:34:13.971Z,4.21
2022-12-15T22:38:18.721Z,4.21
2022-12-15T22:42:22.039Z,4.18
2022-12-15T22:46:26.769Z,4.17
2022-12-15T22:50:30.365Z,4.14
2022-12-15T22:54:33.734Z,4.12
2022-12-15T22:58:43.389Z,4.11
2022-12-15T23:02:48.731Z,4.09
2022-12-15T23:06:52.308Z,4.06
2022-12-15T23:11:13.190Z,4.04
2022-12-15T23:15:34.286Z,3.98
2022-12-15T23:19:39.189Z,3.95
2022-12-15T23:23:42.714Z,3.89
2022-12-15T23:27:46.071Z,3.81
2022-12-15T23:31:50.046Z,3.81
2022-12-15T23:35:56.347Z,3.79
2022-12-15T23:39:59.537Z,3.76
2022-12-15T23:44:03.211Z,3.74
2022-12-15T23:48:07.642Z,3.76
2022-12-15T23:52:12.550Z,3.76
2022-12-15T23:56:17.864Z,3.77
